sensor_id;sensor_type;location;lat;lon;timestamp;pressure;altitude;pressure_sealevel;temperature;humidity
77587;BME280;66744;49.716;17.158;2024-01-15T00:01:19;97519.19;;;2.34;64.34
77587;BME280;66744;49.716;17.158;2024-01-15T00:04:20;97512.25;;;2.33;64.45
77587;BME280;66744;49.716;17.158;2024-01-15T00:07:23;97499.81;;;2.36;64.16
77587;BME280;66744;49.716;17.158;2024-01-15T00:10:24;97500.50;;;2.40;63.29
77587;BME280;66744;49.716;17.158;2024-01-15T00:13:26;97500.50;;;2.40;63.29
77587;BME280;66744;49.716;17.158;2024-01-15T00:16:27;97498.19;;;2.38;64.68
77587;BME280;66744;49.716;17.158;2024-01-15T00:19:33;97499.41;;;2.37;63.42
77587;BME280;66744;49.716;17.158;2024-01-15T00:22:34;97493.88;;;2.41;64.06
77587;BME280;66744;49.716;17.158;2024-01-15T00:25:40;97484.66;;;2.38;64.49
77587;BME280;66744;49.716;17.158;2024-01-15T00:28:42;97476.97;;;2.37;64.65
77587;BME280;66744;49.716;17.158;2024-01-15T00:31:44;97486.53;;;2.41;64.01
77587;BME280;66744;49.716;17.158;2024-01-15T00:34:47;97474.91;;;2.41;64.17
77587;BME280;66744;49.716;17.158;2024-01-15T00:37:48;97470.34;;;2.38;63.34
77587;BME280;66744;49.716;17.158;2024-01-15T00:40:51;97470.69;;;2.40;64.23
77587;BME280;66744;49.716;17.158;2024-01-15T00:43:54;97461.88;;;2.36;63.29
77587;BME280;66744;49.716;17.158;2024-01-15T00:46:57;97458.28;;;2.22;62.84
77587;BME280;66744;49.716;17.158;2024-01-15T00:49:59;97460.16;;;2.26;64.15
77587;BME280;66744;49.716;17.158;2024-01-15T00:53:06;97451.19;;;2.29;63.28
77587;BME280;66744;49.716;17.158;2024-01-15T00:56:10;97443.75;;;2.33;63.58
77587;BME280;66744;49.716;17.158;2024-01-15T00:59:11;97442.63;;;2.30;64.27
77587;BME280;66744;49.716;17.158;2024-01-15T01:02:17;97436.38;;;2.33;63.46
77587;BME280;66744;49.716;17.158;2024-01-15T01:05:18;97436.03;;;2.31;63.72
77587;BME280;66744;49.716;17.158;2024-01-15T01:08:21;97432.13;;;2.32;63.89
77587;BME280;66744;49.716;17.158;2024-01-15T01:11:23;97413.81;;;2.20;63.33
77587;BME280;66744;49.716;17.158;2024-01-15T01:14:26;97409.53;;;2.22;62.93
77587;BME280;66744;49.716;17.158;2024-01-15T01:17:28;97403.41;;;2.18;63.95
77587;BME280;66744;49.716;17.158;2024-01-15T01:20:33;97390.75;;;2.12;63.36
77587;BME280;66744;49.716;17.158;2024-01-15T01:23:34;97395.28;;;2.18;62.76
77587;BME280;66744;49.716;17.158;2024-01-15T01:26:38;97408.00;;;2.21;63.05
77587;BME280;66744;49.716;17.158;2024-01-15T01:29:39;97405.63;;;2.23;63.05
77587;BME280;66744;49.716;17.158;2024-01-15T01:32:40;97403.75;;;2.20;62.89
77587;BME280;66744;49.716;17.158;2024-01-15T01:35:42;97400.25;;;2.20;63.21
77587;BME280;66744;49.716;17.158;2024-01-15T01:38:44;97401.41;;;2.22;61.69
77587;BME280;66744;49.716;17.158;2024-01-15T01:41:46;97393.69;;;2.21;63.03
77587;BME280;66744;49.716;17.158;2024-01-15T01:44:49;97395.22;;;2.22;63.03
77587;BME280;66744;49.716;17.158;2024-01-15T01:47:52;97395.63;;;2.20;63.00
77587;BME280;66744;49.716;17.158;2024-01-15T01:50:54;97391.03;;;2.17;62.71
77587;BME280;66744;49.716;17.158;2024-01-15T01:53:58;97383.28;;;2.19;62.71
77587;BME280;66744;49.716;17.158;2024-01-15T01:57:04;97389.94;;;2.15;62.84
77587;BME280;66744;49.716;17.158;2024-01-15T02:04:40;97381.81;;;2.15;63.41
77587;BME280;66744;49.716;17.158;2024-01-15T02:07:43;97382.97;;;2.14;63.63
77587;BME280;66744;49.716;17.158;2024-01-15T02:10:45;97382.56;;;2.15;63.82
77587;BME280;66744;49.716;17.158;2024-01-15T02:13:50;97378.69;;;2.16;63.47
77587;BME280;66744;49.716;17.158;2024-01-15T02:16:52;97372.06;;;2.17;63.17
77587;BME280;66744;49.716;17.158;2024-01-15T02:19:56;97370.19;;;2.14;61.81
77587;BME280;66744;49.716;17.158;2024-01-15T02:23:16;97364.78;;;2.14;62.93
77587;BME280;66744;49.716;17.158;2024-01-15T02:26:21;97370.19;;;2.14;62.58
77587;BME280;66744;49.716;17.158;2024-01-15T02:29:23;97362.91;;;2.11;62.01
77587;BME280;66744;49.716;17.158;2024-01-15T02:32:26;97360.56;;;2.13;61.33
77587;BME280;66744;49.716;17.158;2024-01-15T02:35:28;97354.38;;;2.13;62.20
77587;BME280;66744;49.716;17.158;2024-01-15T02:38:32;97353.19;;;2.14;61.64
77587;BME280;66744;49.716;17.158;2024-01-15T02:41:34;97338.53;;;2.11;62.95
77587;BME280;66744;49.716;17.158;2024-01-15T02:44:37;97336.66;;;2.08;63.44
77587;BME280;66744;49.716;17.158;2024-01-15T02:47:40;97336.59;;;2.12;62.12
77587;BME280;66744;49.716;17.158;2024-01-15T02:50:42;97326.19;;;2.10;62.20
77587;BME280;66744;49.716;17.158;2024-01-15T02:53:44;97326.94;;;2.11;62.02
77587;BME280;66744;49.716;17.158;2024-01-15T02:56:50;97320.78;;;2.10;62.07
77587;BME280;66744;49.716;17.158;2024-01-15T02:59:53;97306.47;;;2.10;61.73
77587;BME280;66744;49.716;17.158;2024-01-15T03:02:56;97304.53;;;2.10;62.21
77587;BME280;66744;49.716;17.158;2024-01-15T03:05:58;97307.25;;;2.10;63.44
77587;BME280;66744;49.716;17.158;2024-01-15T03:09:02;97307.25;;;2.10;62.94
77587;BME280;66744;49.716;17.158;2024-01-15T03:12:04;97300.63;;;2.11;61.79
77587;BME280;66744;49.716;17.158;2024-01-15T03:15:10;97297.16;;;2.11;61.39
77587;BME280;66744;49.716;17.158;2024-01-15T03:18:15;97287.50;;;2.10;62.56
77587;BME280;66744;49.716;17.158;2024-01-15T03:21:16;97282.09;;;2.10;62.56
77587;BME280;66744;49.716;17.158;2024-01-15T03:24:18;97282.09;;;2.10;62.21
77587;BME280;66744;49.716;17.158;2024-01-15T03:27:21;97279.78;;;2.08;60.95
77587;BME280;66744;49.716;17.158;2024-01-15T03:30:22;97277.19;;;2.05;62.80
77587;BME280;66744;49.716;17.158;2024-01-15T03:33:23;97280.38;;;2.00;62.95
77587;BME280;66744;49.716;17.158;2024-01-15T03:36:26;97273.03;;;2.00;62.49
77587;BME280;66744;49.716;17.158;2024-01-15T03:39:29;97275.88;;;1.93;62.71
77587;BME280;66744;49.716;17.158;2024-01-15T03:42:36;97271.94;;;1.98;62.56
77587;BME280;66744;49.716;17.158;2024-01-15T03:45:39;97272.69;;;1.98;62.69
77587;BME280;66744;49.716;17.158;2024-01-15T03:48:40;97272.25;;;2.00;61.60
77587;BME280;66744;49.716;17.158;2024-01-15T03:51:42;97270.75;;;1.99;62.49
77587;BME280;66744;49.716;17.158;2024-01-15T03:54:43;97271.09;;;2.01;61.82
77587;BME280;66744;49.716;17.158;2024-01-15T03:57:48;97264.13;;;2.00;62.45
77587;BME280;66744;49.716;17.158;2024-01-15T04:00:50;97259.91;;;1.99;61.64
77587;BME280;66744;49.716;17.158;2024-01-15T04:03:51;97261.84;;;1.98;61.85
77587;BME280;66744;49.716;17.158;2024-01-15T04:06:57;97259.56;;;1.97;61.16
77587;BME280;66744;49.716;17.158;2024-01-15T04:10:00;97261.09;;;1.98;62.57
77587;BME280;66744;49.716;17.158;2024-01-15T04:13:02;97265.75;;;1.97;62.37
77587;BME280;66744;49.716;17.158;2024-01-15T04:16:06;97264.63;;;1.95;62.41
77587;BME280;66744;49.716;17.158;2024-01-15T04:19:08;97264.31;;;1.93;62.34
77587;BME280;66744;49.716;17.158;2024-01-15T04:22:09;97266.25;;;1.92;61.71
77587;BME280;66744;49.716;17.158;2024-01-15T04:25:11;97268.19;;;1.92;61.30
77587;BME280;66744;49.716;17.158;2024-01-15T04:28:14;97272.44;;;1.93;62.05
77587;BME280;66744;49.716;17.158;2024-01-15T04:31:25;97272.44;;;1.93;62.47
77587;BME280;66744;49.716;17.158;2024-01-15T04:34:30;97269.38;;;1.91;62.49
77587;BME280;66744;49.716;17.158;2024-01-15T04:37:32;97268.59;;;1.90;61.23
77587;BME280;66744;49.716;17.158;2024-01-15T04:40:35;97257.75;;;1.90;60.70
77587;BME280;66744;49.716;17.158;2024-01-15T04:43:36;97265.88;;;1.90;61.28
77587;BME280;66744;49.716;17.158;2024-01-15T04:46:37;97260.13;;;1.88;62.12
77587;BME280;66744;49.716;17.158;2024-01-15T04:49:39;97267.09;;;1.89;61.97
77587;BME280;66744;49.716;17.158;2024-01-15T04:52:40;97260.56;;;1.87;61.77
77587;BME280;66744;49.716;17.158;2024-01-15T04:55:41;97264.44;;;1.86;61.90
77587;BME280;66744;49.716;17.158;2024-01-15T04:58:42;97262.50;;;1.86;60.44
77587;BME280;66744;49.716;17.158;2024-01-15T05:01:44;97247.88;;;1.84;61.71
77587;BME280;66744;49.716;17.158;2024-01-15T05:04:48;97246.41;;;1.79;61.04
77587;BME280;66744;49.716;17.158;2024-01-15T05:07:52;97245.75;;;1.75;61.57
77587;BME280;66744;49.716;17.158;2024-01-15T05:10:56;97253.03;;;1.78;61.60
77587;BME280;66744;49.716;17.158;2024-01-15T05:13:58;97252.16;;;1.81;61.28
77587;BME280;66744;49.716;17.158;2024-01-15T05:17:01;97250.22;;;1.82;60.69
77587;BME280;66744;49.716;17.158;2024-01-15T05:20:03;97240.94;;;1.83;61.22
77587;BME280;66744;49.716;17.158;2024-01-15T05:23:05;97251.00;;;1.82;61.04
77587;BME280;66744;49.716;17.158;2024-01-15T05:26:06;97243.63;;;1.83;60.56
77587;BME280;66744;49.716;17.158;2024-01-15T05:29:13;97254.53;;;1.79;60.46
77587;BME280;66744;49.716;17.158;2024-01-15T05:32:16;97258.84;;;1.77;61.19
77587;BME280;66744;49.716;17.158;2024-01-15T05:35:18;97267.31;;;1.79;61.16
77587;BME280;66744;49.716;17.158;2024-01-15T05:38:21;97269.34;;;1.75;61.49
77587;BME280;66744;49.716;17.158;2024-01-15T05:41:24;97269.34;;;1.75;60.59
77587;BME280;66744;49.716;17.158;2024-01-15T05:44:27;97269.69;;;1.77;61.71
77587;BME280;66744;49.716;17.158;2024-01-15T05:47:31;97273.91;;;1.78;61.11
77587;BME280;66744;49.716;17.158;2024-01-15T05:50:34;97278.13;;;1.79;60.59
77587;BME280;66744;49.716;17.158;2024-01-15T05:53:39;97278.56;;;1.77;61.11
77587;BME280;66744;49.716;17.158;2024-01-15T05:56:46;97277.88;;;1.73;61.85
77587;BME280;66744;49.716;17.158;2024-01-15T05:59:52;97281.69;;;1.76;60.71
77587;BME280;66744;49.716;17.158;2024-01-15T06:02:54;97279.72;;;1.76;61.25
77587;BME280;66744;49.716;17.158;2024-01-15T06:05:56;97282.44;;;1.76;60.35
77587;BME280;66744;49.716;17.158;2024-01-15T06:08:59;97280.94;;;1.75;61.23
77587;BME280;66744;49.716;17.158;2024-01-15T06:12:07;97277.78;;;1.77;60.45
77587;BME280;66744;49.716;17.158;2024-01-15T06:15:10;97274.31;;;1.76;60.96
77587;BME280;66744;49.716;17.158;2024-01-15T06:18:16;97277.78;;;1.77;60.51
77587;BME280;66744;49.716;17.158;2024-01-15T06:21:20;97269.75;;;1.73;60.09
77587;BME280;66744;49.716;17.158;2024-01-15T06:24:23;97277.09;;;1.73;60.11
77587;BME280;66744;49.716;17.158;2024-01-15T06:27:24;97280.66;;;1.69;60.15
77587;BME280;66744;49.716;17.158;2024-01-15T06:30:25;97280.66;;;1.69;60.98
77587;BME280;66744;49.716;17.158;2024-01-15T06:33:29;97277.94;;;1.69;60.99
77587;BME280;66744;49.716;17.158;2024-01-15T06:36:33;97284.13;;;1.70;61.11
77587;BME280;66744;49.716;17.158;2024-01-15T06:39:35;97281.78;;;1.72;60.36
77587;BME280;66744;49.716;17.158;2024-01-15T06:42:37;97282.19;;;1.71;59.63
77587;BME280;66744;49.716;17.158;2024-01-15T06:45:44;97281.06;;;1.68;59.78
77587;BME280;66744;49.716;17.158;2024-01-15T06:48:45;97294.53;;;1.72;60.60
77587;BME280;66744;49.716;17.158;2024-01-15T06:51:46;97297.25;;;1.72;60.69
77587;BME280;66744;49.716;17.158;2024-01-15T06:54:48;97306.47;;;1.74;59.86
77587;BME280;66744;49.716;17.158;2024-01-15T06:57:50;97310.34;;;1.73;59.79
77587;BME280;66744;49.716;17.158;2024-01-15T07:00:54;97312.22;;;1.76;60.16
77587;BME280;66744;49.716;17.158;2024-01-15T07:03:58;97326.94;;;1.75;58.81
77587;BME280;66744;49.716;17.158;2024-01-15T07:07:00;97328.47;;;1.76;59.62
77587;BME280;66744;49.716;17.158;2024-01-15T07:10:09;97330.41;;;1.76;60.00
77587;BME280;66744;49.716;17.158;2024-01-15T07:13:13;97336.19;;;1.78;59.64
77587;BME280;66744;49.716;17.158;2024-01-15T07:16:16;97343.94;;;1.76;60.44
77587;BME280;66744;49.716;17.158;2024-01-15T07:19:20;97336.19;;;1.78;59.43
77587;BME280;66744;49.716;17.158;2024-01-15T07:22:23;97345.47;;;1.77;59.11
77587;BME280;66744;49.716;17.158;2024-01-15T07:25:24;97344.38;;;1.74;58.96
77587;BME280;66744;49.716;17.158;2024-01-15T07:28:31;97352.16;;;1.72;59.14
77587;BME280;66744;49.716;17.158;2024-01-15T07:31:32;97352.88;;;1.73;59.27
77587;BME280;66744;49.716;17.158;2024-01-15T07:34:34;97357.91;;;1.74;60.20
77587;BME280;66744;49.716;17.158;2024-01-15T07:37:35;97359.44;;;1.75;59.14
77587;BME280;66744;49.716;17.158;2024-01-15T07:40:38;97358.66;;;1.75;60.20
77587;BME280;66744;49.716;17.158;2024-01-15T07:43:42;97359.06;;;1.73;60.08
77587;BME280;66744;49.716;17.158;2024-01-15T07:46:45;97362.13;;;1.75;59.68
77587;BME280;66744;49.716;17.158;2024-01-15T07:49:48;97359.00;;;1.77;59.25
77587;BME280;66744;49.716;17.158;2024-01-15T07:52:51;97362.03;;;1.79;60.37
77587;BME280;66744;49.716;17.158;2024-01-15T07:55:54;97367.88;;;1.77;60.21
77587;BME280;66744;49.716;17.158;2024-01-15T07:58:57;97367.97;;;1.74;59.18
77587;BME280;66744;49.716;17.158;2024-01-15T08:02:00;97356.03;;;1.71;60.09
77587;BME280;66744;49.716;17.158;2024-01-15T08:05:04;97368.38;;;1.72;60.36
77587;BME280;66744;49.716;17.158;2024-01-15T08:08:08;97362.59;;;1.70;60.76
77587;BME280;66744;49.716;17.158;2024-01-15T08:11:11;97360.59;;;1.74;59.47
77587;BME280;66744;49.716;17.158;2024-01-15T08:14:14;97359.00;;;1.77;59.24
77587;BME280;66744;49.716;17.158;2024-01-15T08:17:15;97354.28;;;1.81;60.57
77587;BME280;66744;49.716;17.158;2024-01-15T08:20:18;97354.63;;;1.83;59.83
77587;BME280;66744;49.716;17.158;2024-01-15T08:23:20;97361.06;;;1.89;59.94
77587;BME280;66744;49.716;17.158;2024-01-15T08:26:21;97355.59;;;1.92;59.84
77587;BME280;66744;49.716;17.158;2024-01-15T08:29:22;97358.72;;;1.91;59.38
77587;BME280;66744;49.716;17.158;2024-01-15T08:32:25;97363.72;;;1.92;59.51
77587;BME280;66744;49.716;17.158;2024-01-15T08:35:28;97357.09;;;1.93;60.08
77587;BME280;66744;49.716;17.158;2024-01-15T08:38:30;97359.06;;;1.93;59.99
77587;BME280;66744;49.716;17.158;2024-01-15T08:41:33;97359.06;;;1.93;60.21
77587;BME280;66744;49.716;17.158;2024-01-15T08:44:36;97365.22;;;1.93;61.55
77587;BME280;66744;49.716;17.158;2024-01-15T08:47:41;97363.22;;;1.97;60.30
77587;BME280;66744;49.716;17.158;2024-01-15T08:50:45;97368.22;;;1.99;60.09
77587;BME280;66744;49.716;17.158;2024-01-15T08:53:48;97365.09;;;2.00;60.43
77587;BME280;66744;49.716;17.158;2024-01-15T08:56:50;97362.72;;;2.02;61.10
77587;BME280;66744;49.716;17.158;2024-01-15T08:59:54;97369.94;;;2.09;59.83
77587;BME280;66744;49.716;17.158;2024-01-15T09:02:58;97364.78;;;2.14;60.28
77587;BME280;66744;49.716;17.158;2024-01-15T09:06:01;97377.84;;;2.19;61.28
77587;BME280;66744;49.716;17.158;2024-01-15T09:09:06;97374.38;;;2.19;60.80
77587;BME280;66744;49.716;17.158;2024-01-15T09:12:08;97387.84;;;2.22;59.69
77587;BME280;66744;49.716;17.158;2024-01-15T09:15:15;97392.44;;;2.26;59.91
77587;BME280;66744;49.716;17.158;2024-01-15T09:18:22;97384.91;;;2.33;59.83
77587;BME280;66744;49.716;17.158;2024-01-15T09:21:23;97368.91;;;2.39;60.60
77587;BME280;66744;49.716;17.158;2024-01-15T09:24:26;97387.91;;;2.55;59.88
77587;BME280;66744;49.716;17.158;2024-01-15T09:27:27;97384.44;;;2.70;60.11
77587;BME280;66744;49.716;17.158;2024-01-15T09:30:29;97386.00;;;2.88;58.95
77587;BME280;66744;49.716;17.158;2024-01-15T09:33:39;97378.09;;;2.93;59.43
77587;BME280;66744;49.716;17.158;2024-01-15T09:36:40;97375.47;;;2.90;57.87
77587;BME280;66744;49.716;17.158;2024-01-15T09:39:43;97373.69;;;2.83;58.02
77587;BME280;66744;49.716;17.158;2024-01-15T09:42:45;97366.00;;;2.82;58.51
77587;BME280;66744;49.716;17.158;2024-01-15T09:45:51;97367.75;;;2.88;57.81
77587;BME280;66744;49.716;17.158;2024-01-15T09:48:55;97373.09;;;2.92;58.44
77587;BME280;66744;49.716;17.158;2024-01-15T09:52:01;97367.91;;;2.97;57.87
77587;BME280;66744;49.716;17.158;2024-01-15T09:55:04;97373.00;;;2.95;58.47
77587;BME280;66744;49.716;17.158;2024-01-15T09:58:09;97368.88;;;2.91;57.18
77587;BME280;66744;49.716;17.158;2024-01-15T10:01:12;97363.16;;;2.85;58.21
77587;BME280;66744;49.716;17.158;2024-01-15T10:04:18;97359.81;;;2.81;57.51
77587;BME280;66744;49.716;17.158;2024-01-15T10:07:21;97355.16;;;2.82;58.91
77587;BME280;66744;49.716;17.158;2024-01-15T10:10:23;97354.78;;;2.79;58.81
77587;BME280;66744;49.716;17.158;2024-01-15T10:13:28;97352.06;;;2.79;58.68
77587;BME280;66744;49.716;17.158;2024-01-15T10:16:34;97354.03;;;2.79;58.44
77587;BME280;66744;49.716;17.158;2024-01-15T10:19:38;97351.06;;;2.90;58.25
77587;BME280;66744;49.716;17.158;2024-01-15T10:22:46;97340.13;;;2.93;57.86
77587;BME280;66744;49.716;17.158;2024-01-15T10:25:51;97343.94;;;2.96;58.36
77587;BME280;66744;49.716;17.158;2024-01-15T10:28:52;97338.09;;;2.97;57.73
77587;BME280;66744;49.716;17.158;2024-01-15T10:31:54;97332.78;;;2.94;57.13
77587;BME280;66744;49.716;17.158;2024-01-15T10:34:58;97328.94;;;2.91;57.28
77587;BME280;66744;49.716;17.158;2024-01-15T10:38:13;97327.66;;;2.96;56.51
77587;BME280;66744;49.716;17.158;2024-01-15T10:41:16;97332.56;;;3.01;56.87
77587;BME280;66744;49.716;17.158;2024-01-15T10:44:18;97335.53;;;3.06;56.77
77587;BME280;66744;49.716;17.158;2024-01-15T10:47:20;97351.63;;;3.13;55.79
77587;BME280;66744;49.716;17.158;2024-01-15T10:50:25;97346.13;;;3.17;55.36
77587;BME280;66744;49.716;17.158;2024-01-15T10:53:30;97338.75;;;3.17;55.10
77587;BME280;66744;49.716;17.158;2024-01-15T10:56:35;97331.72;;;3.20;55.18
77587;BME280;66744;49.716;17.158;2024-01-15T10:59:37;97322.72;;;3.23;54.83
77587;BME280;66744;49.716;17.158;2024-01-15T11:02:39;97312.88;;;3.29;53.91
77587;BME280;66744;49.716;17.158;2024-01-15T11:05:55;97319.09;;;3.42;53.89
77587;BME280;66744;49.716;17.158;2024-01-15T11:08:57;97307.59;;;3.51;53.56
77587;BME280;66744;49.716;17.158;2024-01-15T11:12:11;97314.47;;;3.55;52.84
77587;BME280;66744;49.716;17.158;2024-01-15T11:15:19;97319.47;;;3.57;53.26
77587;BME280;66744;49.716;17.158;2024-01-15T11:18:21;97302.97;;;3.64;53.46
77587;BME280;66744;49.716;17.158;2024-01-15T11:21:25;97309.50;;;3.66;53.59
77587;BME280;66744;49.716;17.158;2024-01-15T11:24:38;97302.66;;;3.74;53.48
77587;BME280;66744;49.716;17.158;2024-01-15T11:30:47;97300.19;;;3.80;52.91
77587;BME280;66744;49.716;17.158;2024-01-15T11:33:50;97298.22;;;3.80;52.95
77587;BME280;66744;49.716;17.158;2024-01-15T11:40:02;97302.28;;;3.88;53.39
77587;BME280;66744;49.716;17.158;2024-01-15T11:43:14;97299.22;;;3.86;52.62
77587;BME280;66744;49.716;17.158;2024-01-15T11:46:18;97306.81;;;3.79;52.91
77587;BME280;66744;49.716;17.158;2024-01-15T11:53:03;97286.91;;;3.69;53.42
77587;BME280;66744;49.716;17.158;2024-01-15T11:56:14;97288.97;;;3.65;53.04
77587;BME280;66744;49.716;17.158;2024-01-15T11:59:23;97286.00;;;3.60;53.55
77587;BME280;66744;49.716;17.158;2024-01-15T12:02:34;97282.75;;;3.52;53.63
77587;BME280;66744;49.716;17.158;2024-01-15T12:05:39;97281.75;;;3.46;53.52
77587;BME280;66744;49.716;17.158;2024-01-15T12:08:43;97287.59;;;3.45;53.58
77587;BME280;66744;49.716;17.158;2024-01-15T12:12:09;97280.31;;;3.42;54.02
77587;BME280;66744;49.716;17.158;2024-01-15T12:15:19;97291.94;;;3.42;53.91
77587;BME280;66744;49.716;17.158;2024-01-15T12:18:20;97293.78;;;3.45;54.76
77587;BME280;66744;49.716;17.158;2024-01-15T12:21:21;97294.56;;;3.46;54.60
77587;BME280;66744;49.716;17.158;2024-01-15T12:24:23;97280.22;;;3.45;54.36
77587;BME280;66744;49.716;17.158;2024-01-15T12:27:31;97284.47;;;3.46;54.69
77587;BME280;66744;49.716;17.158;2024-01-15T12:30:38;97278.84;;;3.53;54.86
77587;BME280;66744;49.716;17.158;2024-01-15T12:33:41;97272.88;;;3.58;54.44
77587;BME280;66744;49.716;17.158;2024-01-15T12:36:51;97267.78;;;3.60;54.79
77587;BME280;66744;49.716;17.158;2024-01-15T12:40:07;97269.53;;;3.67;54.99
77587;BME280;66744;49.716;17.158;2024-01-15T12:43:18;97268.00;;;3.66;54.12
77587;BME280;66744;49.716;17.158;2024-01-15T12:46:25;97259.97;;;3.62;53.96
77587;BME280;66744;49.716;17.158;2024-01-15T12:49:29;97254.31;;;3.57;54.17
77587;BME280;66744;49.716;17.158;2024-01-15T12:52:32;97253.88;;;3.58;54.59
77587;BME280;66744;49.716;17.158;2024-01-15T12:55:34;97250.84;;;3.56;54.63
77587;BME280;66744;49.716;17.158;2024-01-15T12:58:36;97247.38;;;3.56;54.92
77587;BME280;66744;49.716;17.158;2024-01-15T13:01:38;97245.63;;;3.49;54.89
77587;BME280;66744;49.716;17.158;2024-01-15T13:04:40;97230.31;;;3.55;54.71
77587;BME280;66744;49.716;17.158;2024-01-15T13:07:43;97238.47;;;3.55;54.85
77587;BME280;66744;49.716;17.158;2024-01-15T13:10:45;97241.16;;;3.55;55.09
77587;BME280;66744;49.716;17.158;2024-01-15T13:13:48;97242.72;;;3.56;55.44
77587;BME280;66744;49.716;17.158;2024-01-15T13:16:51;97233.88;;;3.52;55.74
77587;BME280;66744;49.716;17.158;2024-01-15T13:19:57;97245.06;;;3.54;55.38
77587;BME280;66744;49.716;17.158;2024-01-15T13:23:01;97237.03;;;3.51;55.16
77587;BME280;66744;49.716;17.158;2024-01-15T13:26:04;97236.38;;;3.47;55.39
77587;BME280;66744;49.716;17.158;2024-01-15T13:29:06;97234.09;;;3.45;56.32
77587;BME280;66744;49.716;17.158;2024-01-15T13:32:07;97240.28;;;3.46;55.17
77587;BME280;66744;49.716;17.158;2024-01-15T13:35:15;97238.97;;;3.38;55.30
77587;BME280;66744;49.716;17.158;2024-01-15T13:38:19;97259.78;;;3.28;56.65
77587;BME280;66744;49.716;17.158;2024-01-15T13:41:22;97259.63;;;3.19;58.30
77587;BME280;66744;49.716;17.158;2024-01-15T13:44:30;97260.81;;;3.18;58.82
77587;BME280;66744;49.716;17.158;2024-01-15T13:47:34;97262.44;;;3.15;58.70
77587;BME280;66744;49.716;17.158;2024-01-15T13:50:40;97262.44;;;3.15;59.41
77587;BME280;66744;49.716;17.158;2024-01-15T13:53:44;97266.69;;;3.16;59.07
77587;BME280;66744;49.716;17.158;2024-01-15T13:56:47;97272.19;;;3.13;58.98
77587;BME280;66744;49.716;17.158;2024-01-15T13:59:49;97283.81;;;3.13;58.96
77587;BME280;66744;49.716;17.158;2024-01-15T14:02:53;97285.75;;;3.13;59.33
77587;BME280;66744;49.716;17.158;2024-01-15T14:05:55;97291.72;;;3.08;59.31
77587;BME280;66744;49.716;17.158;2024-01-15T14:08:57;97290.94;;;3.07;59.71
77587;BME280;66744;49.716;17.158;2024-01-15T14:12:04;97287.56;;;3.03;60.39
77587;BME280;66744;49.716;17.158;2024-01-15T14:15:09;97280.81;;;2.95;61.34
77587;BME280;66744;49.716;17.158;2024-01-15T14:18:11;97280.56;;;2.90;61.50
77587;BME280;66744;49.716;17.158;2024-01-15T14:21:15;97288.13;;;2.82;61.64
77587;BME280;66744;49.716;17.158;2024-01-15T14:27:34;97286.91;;;2.83;62.11
77587;BME280;66744;49.716;17.158;2024-01-15T14:30:40;97292.09;;;2.77;62.06
77587;BME280;66744;49.716;17.158;2024-01-15T14:33:46;97280.47;;;2.77;62.41
77587;BME280;66744;49.716;17.158;2024-01-15T14:36:49;97282.03;;;2.78;62.58
77587;BME280;66744;49.716;17.158;2024-01-15T14:39:50;97288.38;;;2.71;62.66
77587;BME280;66744;49.716;17.158;2024-01-15T14:42:53;97297.69;;;2.70;61.69
77587;BME280;66744;49.716;17.158;2024-01-15T14:45:56;97293.13;;;2.67;62.59
77587;BME280;66744;49.716;17.158;2024-01-15T14:49:00;97294.72;;;2.65;62.44
77587;BME280;66744;49.716;17.158;2024-01-15T14:52:06;97298.66;;;2.64;61.56
77587;BME280;66744;49.716;17.158;2024-01-15T14:55:10;97287.81;;;2.64;60.79
77587;BME280;66744;49.716;17.158;2024-01-15T14:58:12;97284.72;;;2.62;60.84
77587;BME280;66744;49.716;17.158;2024-01-15T15:01:14;97275.41;;;2.63;60.37
77587;BME280;66744;49.716;17.158;2024-01-15T15:04:21;97279.31;;;2.62;60.13
77587;BME280;66744;49.716;17.158;2024-01-15T15:07:26;97284.47;;;2.56;59.31
77587;BME280;66744;49.716;17.158;2024-01-15T15:10:30;97287.28;;;2.53;60.04
77587;BME280;66744;49.716;17.158;2024-01-15T15:13:33;97288.13;;;2.50;60.09
77587;BME280;66744;49.716;17.158;2024-01-15T15:16:42;97302.19;;;2.45;59.21
77587;BME280;66744;49.716;17.158;2024-01-15T15:19:47;97307.59;;;2.45;58.93
77587;BME280;66744;49.716;17.158;2024-01-15T15:22:50;97318.97;;;2.40;59.62
77587;BME280;66744;49.716;17.158;2024-01-15T15:25:57;97316.59;;;2.42;59.60
77587;BME280;66744;49.716;17.158;2024-01-15T15:29:00;97311.94;;;2.42;60.12
77587;BME280;66744;49.716;17.158;2024-01-15T15:32:03;97309.97;;;2.43;59.04
77587;BME280;66744;49.716;17.158;2024-01-15T15:35:07;97322.34;;;2.44;59.98
77587;BME280;66744;49.716;17.158;2024-01-15T15:38:11;97324.19;;;2.47;59.45
77587;BME280;66744;49.716;17.158;2024-01-15T15:41:12;97330.38;;;2.47;58.69
77587;BME280;66744;49.716;17.158;2024-01-15T15:44:18;97336.66;;;2.44;59.70
77587;BME280;66744;49.716;17.158;2024-01-15T15:47:22;97333.28;;;2.40;60.46
77587;BME280;66744;49.716;17.158;2024-01-15T15:50:24;97338.59;;;2.44;60.31
77587;BME280;66744;49.716;17.158;2024-01-15T15:53:27;97344.00;;;2.44;61.30
77587;BME280;66744;49.716;17.158;2024-01-15T15:56:29;97339.78;;;2.43;61.81
77587;BME280;66744;49.716;17.158;2024-01-15T15:59:35;97349.88;;;2.42;62.74
77587;BME280;66744;49.716;17.158;2024-01-15T16:02:37;97340.19;;;2.41;61.66
77587;BME280;66744;49.716;17.158;2024-01-15T16:05:39;97346.81;;;2.40;62.33
77587;BME280;66744;49.716;17.158;2024-01-15T16:08:41;97346.06;;;2.40;63.59
77587;BME280;66744;49.716;17.158;2024-01-15T16:11:44;97329.44;;;2.38;62.57
77587;BME280;66744;49.716;17.158;2024-01-15T16:14:47;97332.91;;;2.38;63.16
77587;BME280;66744;49.716;17.158;2024-01-15T16:17:50;97336.13;;;2.33;63.15
77587;BME280;66744;49.716;17.158;2024-01-15T16:20:53;97343.94;;;2.31;62.32
77587;BME280;66744;49.716;17.158;2024-01-15T16:23:55;97336.56;;;2.32;62.46
77587;BME280;66744;49.716;17.158;2024-01-15T16:27:02;97351.28;;;2.31;62.22
77587;BME280;66744;49.716;17.158;2024-01-15T16:30:05;97355.25;;;2.26;62.87